Station: Mount Isa  

  Atmospheric Gas Attenuation - ITU Rec 676-11   ----------------- dB/100km -----------------
Date Time Temp RH % AH g/m3 Dew Point Wind Direction Speed kph Gust kph Barometer mB Rainfall Since 9am 24GHz 47GHz 76GHz 122GHz 134GHz 241GHz
07/09 02:30 11.9 65 6.88 5.5 0 0 1016.4 0 16.0 23.8 34.0 89.0 78.5 268.4
07/09 02:20 12.1 64 6.86 5.5 0 0 1016.5 0 15.9 23.7 33.9 88.6 78.0 266.9
07/09 02:10 12.5 64 7.04 5.9 0 0 1016.5 0 16.3 23.9 34.4 90.0 79.9 273.5
07/09 02:00 12.5 62 6.82 5.4 0 0 1016.4 0 15.8 23.6 33.6 87.7 77.1 263.8
07/09 01:50 12.6 63 6.97 5.8 0 0 1016.6 0 16.2 23.8 34.1 89.2 78.9 270.1
07/09 01:40 12.8 62 6.95 5.7 0 0 1016.7 0 16.1 23.7 33.9 88.7 78.5 268.6
07/09 01:30 12.8 62 6.95 5.7 0 0 1016.6 0 16.1 23.7 33.9 88.7 78.5 268.5
07/09 01:20 13.2 61 7 5.9 0 0 1016.7 0 16.2 23.7 34.0 88.8 78.7 269.4
07/09 01:10 13.2 60 6.89 5.6 0 0 1016.8 0 16.0 23.5 33.5 87.7 77.3 264.6
07/09 01:00 13.6 59 6.94 5.7 0 0 1016.8 0 16.1 23.5 33.6 87.8 77.6 265.5
07/09 00:50 13.5 59 6.9 5.7 0 0 1016.8 0 16.0 23.4 33.5 87.5 77.2 264.0
07/09 00:40 13.8 58 6.91 5.7 0 0 1016.9 0 16.0 23.4 33.4 87.3 77.0 263.5
07/09 00:30 13.8 58 6.91 5.7 0 0 1016.9 0 16.0 23.4 33.4 87.3 77.0 263.5
07/09 00:20 14 56 6.75 5.4 0 0 1016.9 0 15.6 23.1 32.7 85.4 74.8 255.9
07/09 00:10 14.1 56 6.8 5.5 0 0 1016.9 0 15.7 23.1 32.8 85.8 75.4 257.8
07/09 00:00 14.6 55 6.88 5.7 0 0 1016.9 0 15.9 23.1 32.9 86.1 75.9 259.6
06/09 23:50 14.9 52 6.63 5.1 0 0 1016.9 0 15.3 22.7 31.9 83.3 72.5 248.0
06/09 23:40 14.8 53 6.71 5.3 0 0 1017 0 15.5 22.8 32.2 84.2 73.6 251.7
06/09 23:30 15.1 51 6.58 5 0 0 1016.9 0 15.2 22.6 31.6 82.6 71.8 245.2
06/09 23:20 15.1 53 6.84 5.6 0 0 1017 0 15.8 22.9 32.6 85.2 74.9 256.3
06/09 23:10 15.1 51 6.58 5 0 0 1017 0 15.2 22.6 31.6 82.6 71.8 245.3
06/09 23:00 15.1 52 6.71 5.3 0 0 1017 0 15.5 22.7 32.1 83.9 73.3 250.8
06/09 22:50 15.4 51 6.7 5.3 0 0 1017 0 15.5 22.7 32.0 83.5 72.9 249.4
06/09 22:40 15.6 50 6.65 5.2 0 0 1016.9 0 15.4 22.5 31.7 82.8 72.1 246.7
06/09 22:30 16 48 6.54 5 0 0 1016.9 0 15.1 22.3 31.1 81.3 70.5 240.9
06/09 22:20 16.5 46 6.46 4.9 0 0 1016.9 0 14.9 22.0 30.7 80.0 69.1 236.1
06/09 22:10 16.8 46 6.58 5.1 2 6 1016.8 0 15.2 22.1 31.0 80.9 70.2 240.1
06/09 22:00 17.1 44 6.4 4.8 0 0 1016.6 0 14.8 21.8 30.2 78.9 67.9 231.8
06/09 21:50 17.2 43 6.3 4.5 0 0 1016.6 0 14.6 21.6 29.8 77.8 66.6 227.4
06/09 21:40 16.7 46 6.54 5 0 0 1016.5 0 15.1 22.1 30.9 80.6 69.8 238.7
06/09 21:30 16.8 45 6.43 4.8 0 0 1016.3 0 14.9 21.9 30.4 79.4 68.4 233.8
06/09 21:20 17.2 44 6.44 4.9 0 0 1016.3 0 14.9 21.8 30.3 79.1 68.2 233.1
06/09 21:10 17.5 43 6.41 4.8 0 0 1016.3 0 14.8 21.7 30.1 78.5 67.6 231.0
06/09 21:00 18 41 6.3 4.6 0 0 1016 0 14.5 21.4 29.5 77.0 65.9 225.1
06/09 20:50 18.1 40 6.18 4.3 0 0 1016 0 14.3 21.2 29.1 75.8 64.5 220.0
06/09 20:40 18.6 40 6.37 4.8 0 0 1015.9 0 14.7 21.4 29.5 77.1 66.2 226.2
06/09 20:30 18.8 39 6.28 4.6 4 7 1015.7 0 14.5 21.2 29.2 76.0 65.0 222.1
06/09 20:20 18.9 39 6.32 4.7 6 7 1015.6 0 14.5 21.2 29.3 76.3 65.4 223.4
06/09 20:10 19.2 38 6.27 4.6 0 6 1015.5 0 14.4 21.1 29.0 75.6 64.6 220.5
06/09 20:00 19.9 37 6.36 4.8 0 0 1015.2 0 14.6 21.0 29.0 75.7 65.0 222.2
06/09 19:50 20.2 36 6.29 4.7 0 0 1015.2 0 14.4 20.9 28.7 74.8 64.0 218.6
06/09 19:40 20.8 35 6.34 4.8 6 7 1014.9 0 14.5 20.8 28.6 74.7 64.1 218.9
06/09 19:30 21.4 33 6.19 4.5 9 9 1014.8 0 14.2 20.5 27.9 72.8 61.9 211.5
06/09 19:20 22.3 31 6.12 4.4 9 11 1014.7 0 14.0 20.2 27.4 71.4 60.5 206.6
06/09 19:10 23.7 28 5.99 4.1 9 13 1014.5 0 13.7 19.7 26.5 69.1 58.1 198.3
06/09 19:00 24.7 27 6.11 4.5 11 13 1014.4 0 13.9 19.7 26.6 69.3 58.6 200.3
06/09 18:50 26.6 23 5.79 3.8 11 15 1014.3 0 13.2 18.9 25.0 65.1 54.1 184.4
06/09 18:40 28 23 6.26 5 13 15 1014.2 0 14.1 19.2 26.0 67.8 57.8 197.9
06/09 18:30 29.5 19 5.61 3.5 13 17 1014 0 12.7 18.1 23.6 61.5 50.5 172.1
06/09 18:20 30.6 17 5.33 2.8 13 17 1013.9 0 12.1 17.5 22.5 58.5 47.2 160.5
06/09 18:10 31.5 16 5.26 2.7 17 24 1013.8 0 11.9 17.3 22.1 57.4 46.0 156.6
06/09 18:00 32.2 16 5.46 3.2 15 24 1013.5 0 12.3 17.4 22.5 58.4 47.5 161.8
06/09 17:50 32.7 15 5.26 2.7 15 24 1013.5 0 11.9 17.1 21.8 56.6 45.4 154.4
06/09 17:40 33.2 15 5.4 3.1 15 20 1013.4 0 12.2 17.1 22.0 57.3 46.4 158.0
06/09 17:30 33.6 15 5.51 3.4 15 26 1013.2 0 12.4 17.2 22.2 57.8 47.1 160.7
06/09 17:20 33.9 15 5.6 3.7 13 19 1013.2 0 12.6 17.2 22.4 58.3 47.8 163.1
06/09 17:10 34 15 5.63 3.7 17 26 1013.1 0 12.6 17.3 22.5 58.4 48.0 163.8
06/09 17:00 34.2 15 5.69 3.9 17 30 1013 0 12.7 17.3 22.6 58.7 48.4 165.3
06/09 16:50 34.4 15 5.75 4 11 20 1013 0 12.8 17.3 22.7 59.0 48.9 166.9
06/09 16:40 34.4 16 6.13 5 15 20 1013 0 13.6 17.8 23.7 61.9 52.3 179.1
06/09 16:30 34.7 15 5.84 4.3 19 30 1013 0 13.0 17.4 22.9 59.5 49.5 169.2
06/09 16:20 34.9 16 6.3 5.4 15 26 1013.1 0 13.9 17.9 24.1 62.8 53.6 183.6
06/09 16:10 34.7 16 6.23 5.2 19 28 1013 0 13.8 17.8 23.9 62.4 53.1 181.8
06/09 16:00 35 16 6.33 5.4 15 26 1012.9 0 14.0 17.9 24.1 62.9 53.8 184.4
06/09 15:50 34.9 15 5.9 4.4 17 28 1013.1 0 13.1 17.4 23.0 59.8 49.9 170.7
06/09 15:40 35.1 15 5.96 4.6 13 24 1013.2 0 13.2 17.4 23.1 60.1 50.4 172.3
06/09 15:30 34.7 16 6.23 5.2 17 26 1013.2 0 13.8 17.8 23.9 62.4 53.1 181.8
06/09 15:20 34.8 16 6.26 5.3 13 24 1013.4 0 13.9 17.8 24.0 62.6 53.3 182.6
06/09 15:10 34.8 16 6.26 5.3 19 28 1013.5 0 13.9 17.8 24.0 62.6 53.3 182.6
06/09 15:00 34.9 16 6.3 5.4 19 30 1013.5 0 13.9 17.9 24.1 62.8 53.6 183.7
06/09 14:50 34.8 17 6.65 6.2 15 26 1013.7 0 14.7 18.3 25.1 65.5 57.0 195.4
06/09 14:40 35.1 17 6.76 6.4 7 15 1014 0 14.9 18.4 25.3 66.1 57.8 198.4
06/09 14:30 34.2 18 6.83 6.5 11 19 1014 0 15.0 18.6 25.8 67.4 59.1 202.8
06/09 14:20 34.4 18 6.9 6.7 17 24 1014.4 0 15.2 18.7 26.0 67.8 59.6 204.7
06/09 14:10 33.8 20 7.43 7.7 20 30 1014.5 0 16.3 19.4 27.7 72.4 65.2 224.2
06/09 14:00 34.5 19 7.32 7.5 20 32 1014.6 0 16.0 19.2 27.2 71.0 63.6 218.6
06/09 13:50 34.7 18 7.01 6.9 17 24 1014.7 0 15.4 18.8 26.2 68.4 60.5 207.7
06/09 13:40 33.8 19 7.06 7 13 20 1014.9 0 15.5 19.0 26.6 69.5 61.6 211.6
06/09 13:30 33.8 19 7.06 7 20 28 1015.1 0 15.5 19.0 26.6 69.6 61.6 211.7
06/09 13:20 34.2 20 7.59 8 11 20 1015.4 0 16.6 19.6 28.1 73.4 66.5 228.8
06/09 13:10 34 21 7.88 8.6 9 17 1015.5 0 17.2 20.0 29.0 75.9 69.5 239.3
06/09 13:00 33.5 20 7.31 7.5 13 19 1015.6 0 16.0 19.4 27.5 71.8 64.3 221.0
06/09 12:50 34.1 20 7.55 8 9 19 1016 0 16.5 19.6 28.0 73.2 66.2 227.8
06/09 12:40 34.1 21 7.92 8.7 13 19 1016.1 0 17.3 20.0 29.1 76.2 69.8 240.5
06/09 12:30 33.4 25 9.09 10.7 13 19 1016.2 0 19.7 21.6 33.0 86.5 82.3 284.3
06/09 12:20 33.2 23 8.28 9.3 13 19 1016.5 0 18.0 20.7 30.5 80.0 74.2 255.9
06/09 12:10 33.2 24 8.64 9.9 11 17 1016.6 0 18.8 21.1 31.6 82.9 77.9 268.8
06/09 12:00 32.5 25 8.67 9.9 11 13 1016.9 0 18.9 21.3 32.0 83.9 78.9 272.2
06/09 11:50 32.2 25 8.53 9.7 11 15 1017.1 0 18.6 21.2 31.7 83.1 77.7 268.1
06/09 11:40 32.4 27 9.31 11 11 17 1017.1 0 20.2 22.2 34.1 89.5 85.7 296.1
06/09 11:30 32.6 27 9.41 11.2 9 15 1017.3 0 20.4 22.3 34.3 90.1 86.5 299.1
06/09 11:20 32.8 27 9.51 11.3 9 15 1017.4 0 20.6 22.4 34.6 90.8 87.4 302.1
06/09 11:10 32.4 29 10 12.1 7 9 1017.5 0 21.6 23.1 36.4 95.5 93.1 322.1
06/09 11:00 31.9 28 9.41 11.1 7 24 1017.8 0 20.4 22.5 34.7 90.9 87.3 301.8
06/09 10:50 31.4 30 9.81 11.7 6 19 1017.9 0 21.3 23.1 36.2 95.0 92.2 318.8
06/09 10:40 30.9 34 10.83 13.2 13 19 1018 0 23.4 24.7 39.9 104.8 104.1 360.6
06/09 10:30 30.4 37 11.47 14.1 13 19 1018 0 24.7 25.7 42.3 111.4 112.2 388.7
06/09 10:20 30.5 38 11.84 14.6 13 20 1018.2 0 25.5 26.2 43.6 114.8 116.4 403.4
06/09 10:10 29.8 40 12 14.7 17 24 1018.3 0 25.9 26.6 44.6 117.4 119.3 413.6
06/09 10:00 29.4 40 11.74 14.4 17 22 1018.2 0 25.3 26.4 43.9 115.4 116.8 404.7

Last Refresh: 07-Sep-2026 02:08:37

Bureau of Meteorology